Home > Products > Valid Products > TAF

000
FTUS45 KBOI 262128 AAA
TAFTWF
TAF AMD
KTWF 262128Z 2621/2718 10006KT P6SM SCT015
     FM270600 15006KT 6SM HZ SCT035
     FM270900 20008KT P6SM BKN250
     FM271700 11005KT P6SM BKN150=



000
FTUS45 KBOI 262128 AAA
TAFTWF
TAF AMD
KTWF 262128Z 2621/2718 10006KT P6SM SCT015
     FM270600 15006KT 6SM HZ SCT035
     FM270900 20008KT P6SM BKN250
     FM271700 11005KT P6SM BKN150=



000
FTUS45 KBOI 262125 AAB
TAFMYL
TAF AMD
KMYL 262125Z 2621/2718 VRB02KT P6SM SCT200
     FM270600 00000KT 5SM BR BKN035
     FM271200 00000KT 3SM BR SCT020 BKN200
     FM271730 16003KT 6SM BR SCT035 BKN150=



000
FTUS45 KBOI 262125 AAB
TAFMYL
TAF AMD
KMYL 262125Z 2621/2718 VRB02KT P6SM SCT200
     FM270600 00000KT 5SM BR BKN035
     FM271200 00000KT 3SM BR SCT020 BKN200
     FM271730 16003KT 6SM BR SCT035 BKN150=



000
FTUS45 KBOI 262121 AAB
TAFBOI
TAF AMD
KBOI 262121Z 2621/2718 32005KT 6SM HZ SCT022
     FM270900 13005KT 6SM BR FEW025 BKN250
     FM271700 VRB03KT 6SM HZ SCT025 BKN150=



000
FTUS45 KBOI 262121 AAB
TAFBOI
TAF AMD
KBOI 262121Z 2621/2718 32005KT 6SM HZ SCT022
     FM270900 13005KT 6SM BR FEW025 BKN250
     FM271700 VRB03KT 6SM HZ SCT025 BKN150=



000
FTUS45 KBOI 262009 AAA
TAFMYL
TAF AMD
KMYL 262009Z 2620/2718 VRB02KT P6SM SCT200
     FM270600 00000KT 3SM BR BKN020
     FM271200 00000KT 1/2SM FZFG OVC006=



000
FTUS45 KBOI 261943 AAA
TAFBOI
TAF AMD
KBOI 261943Z 2620/2718 13004KT 6SM HZ SCT022
      TEMPO 2620/2621 32003KT 4SM BR BKN015
     FM270900 VRB03KT 5SM BR BKN025
     FM271600 VRB03KT 6SM HZ SCT025=



000
FTUS45 KBOI 261943 AAA
TAFBOI
TAF AMD
KBOI 261943Z 2620/2718 13004KT 6SM HZ SCT022
      TEMPO 2620/2621 32003KT 4SM BR BKN015
     FM270900 VRB03KT 5SM BR BKN025
     FM271600 VRB03KT 6SM HZ SCT025=



000
FTUS45 KBOI 261736
TAFTWF
TAF
KTWF 261736Z 2618/2718 07011KT 1/2SM FZFG BKN005
     FM261930 10006KT P6SM SCT015
     FM270600 15006KT 6SM HZ BKN035
      TEMPO 2712/2716 04008KT 3SM BR BKN015=



000
FTUS45 KBOI 261736
TAFTWF
TAF
KTWF 261736Z 2618/2718 07011KT 1/2SM FZFG BKN005
     FM261930 10006KT P6SM SCT015
     FM270600 15006KT 6SM HZ BKN035
      TEMPO 2712/2716 04008KT 3SM BR BKN015=



000
FTUS45 KBOI 261732
TAFMYL
TAF
KMYL 261732Z 2618/2718 00000KT 1/2SM FZFG VV001
     FM262100 00000KT P6SM SCT100
     FM270600 00000KT 3SM BR BKN020
     FM271200 00000KT 1/2SM FZFG OVC006=



000
FTUS45 KBOI 261732
TAFMYL
TAF
KMYL 261732Z 2618/2718 00000KT 1/2SM FZFG VV001
     FM262100 00000KT P6SM SCT100
     FM270600 00000KT 3SM BR BKN020
     FM271200 00000KT 1/2SM FZFG OVC006=



000
FTUS45 KBOI 261731
TAFBKE
TAF
KBKE 261731Z 2618/2718 VRB06KT 6SM BR VCFG SCT002 SCT250
     FM262000 11011KT P6SM SCT250
     FM270300 12004KT P6SM SCT250=



000
FTUS45 KBOI 261731
TAFBKE
TAF
KBKE 261731Z 2618/2718 VRB06KT 6SM BR VCFG SCT002 SCT250
     FM262000 11011KT P6SM SCT250
     FM270300 12004KT P6SM SCT250=



000
FTUS45 KBOI 261729
TAFBNO
TAF
KBNO 261729Z 2618/2718 VRB04KT P6SM SCT250
     FM271500 VRB03KT P6SM BKN250=



000
FTUS45 KBOI 261729
TAFBNO
TAF
KBNO 261729Z 2618/2718 VRB04KT P6SM SCT250
     FM271500 VRB03KT P6SM BKN250=



000
FTUS45 KBOI 261728
TAFJER
TAF
KJER 261728Z 2618/2718 04015KT P6SM FEW120
     FM262200 04020KT P6SM SCT025=



000
FTUS45 KBOI 261728
TAFJER
TAF
KJER 261728Z 2618/2718 04015KT P6SM FEW120
     FM262200 04020KT P6SM SCT025=



000
FTUS45 KBOI 261727
TAFBOI
TAF
KBOI 261727Z 2618/2718 13004KT 6SM HZ SCT015
      TEMPO 2618/2620 32003KT 4SM BR BKN015
     FM270900 VRB03KT 5SM BR BKN025
     FM271600 VRB03KT 6SM HZ SCT025=



000
FTUS45 KBOI 261727
TAFBOI
TAF
KBOI 261727Z 2618/2718 13004KT 6SM HZ SCT015
      TEMPO 2618/2620 32003KT 4SM BR BKN015
     FM270900 VRB03KT 5SM BR BKN025
     FM271600 VRB03KT 6SM HZ SCT025=



000
FTUS45 KBOI 261120
TAFBNO
TAF
KBNO 261120Z 2612/2712 VRB04KT P6SM SCT250=



000
FTUS45 KBOI 261120
TAFBOI
TAF
KBOI 261120Z 2612/2712 00000KT 4SM BR VCFG SCT010
      TEMPO 2612/2615 1SM BR BKN005
     FM261900 VRB03KT 6SM HZ SCT015
     FM270900 VRB03KT 3SM BR BKN006=



000
FTUS45 KBOI 261120
TAFJER
TAF
KJER 261120Z 2612/2712 04015KT P6SM FEW120
      TEMPO 2612/2616 3/4SM BR VV002
     FM262200 04020KT P6SM SCT025=



000
FTUS45 KBOI 261120
TAFTWF
TAF
KTWF 261120Z 2612/2712 07012KT 1/4SM FZFG VV002
     FM261700 10006KT P6SM SCT015=



000
FTUS45 KBOI 261120
TAFJER
TAF
KJER 261120Z 2612/2712 04015KT P6SM FEW120
      TEMPO 2612/2616 3/4SM BR VV002
     FM262200 04020KT P6SM SCT025=



000
FTUS45 KBOI 261120
TAFTWF
TAF
KTWF 261120Z 2612/2712 07012KT 1/4SM FZFG VV002
     FM261700 10006KT P6SM SCT015=



000
FTUS45 KBOI 261120
TAFBNO
TAF
KBNO 261120Z 2612/2712 VRB04KT P6SM SCT250=



000
FTUS45 KBOI 261120
TAFMYL
TAF
KMYL 261120Z 2612/2712 00000KT 1/2SM FZFG VV001
     FM262100 00000KT P6SM SCT100=



000
FTUS45 KBOI 261120
TAFBKE
TAF
KBKE 261120Z 2612/2712 VRB06KT 6SM BR VCFG SCT250=



000
FTUS45 KBOI 261120
TAFBKE
TAF
KBKE 261120Z 2612/2712 VRB06KT 6SM BR VCFG SCT250=



000
FTUS45 KBOI 261120
TAFMYL
TAF
KMYL 261120Z 2612/2712 00000KT 1/2SM FZFG VV001
     FM262100 00000KT P6SM SCT100=



000
FTUS45 KBOI 261120
TAFBOI
TAF
KBOI 261120Z 2612/2712 00000KT 4SM BR VCFG SCT010
      TEMPO 2612/2615 1SM BR BKN005
     FM261900 VRB03KT 6SM HZ SCT015
     FM270900 VRB03KT 3SM BR BKN006=



000
FTUS45 KBOI 260941 AAD
TAFBOI
TAF AMD
KBOI 260941Z 2610/2706 00000KT 5SM BR SCT010
      TEMPO 2610/2614 1SM BR BKN005
     FM261900 VRB03KT 6SM HZ SCT015=



000
FTUS45 KBOI 260941 AAD
TAFBOI
TAF AMD
KBOI 260941Z 2610/2706 00000KT 5SM BR SCT010
      TEMPO 2610/2614 1SM BR BKN005
     FM261900 VRB03KT 6SM HZ SCT015=



000
FTUS45 KBOI 260804 AAC
TAFBOI
TAF AMD
KBOI 260804Z 2608/2706 00000KT 5SM BR SCT010
     FM260930 VRB03KT 1/4SM FZFG OVC003
     FM261900 VRB03KT 6SM HZ SCT015=



000
FTUS45 KBOI 260803 AAB
TAFTWF
TAF AMD
KTWF 260803Z 2608/2706 07012KT 1/4SM FG VV002
     FM261700 10006KT P6SM SCT015=



000
FTUS45 KBOI 260613 AAA
TAFTWF
TAF AMD
KTWF 260613Z 2606/2706 07012KT 1SM BR OVC003
     FM261700 10006KT P6SM SCT015=



000
FTUS45 KBOI 260613 AAA
TAFTWF
TAF AMD
KTWF 260613Z 2606/2706 07012KT 1SM BR OVC003
     FM261700 10006KT P6SM SCT015=



000
FTUS45 KBOI 260528
TAFJER
TAF
KJER 260528Z 2606/2706 04012G22KT 6SM BR OVC015
     FM261600 04015G28KT P6SM BKN025
     FM262200 04014G26KT P6SM SCT025=



000
FTUS45 KBOI 260528
TAFTWF
TAF
KTWF 260528Z 2606/2706 07012KT 6SM BR SCT010
     FM260700 07010KT 6SM BR OVC010
     FM261700 10006KT P6SM SCT015=



000
FTUS45 KBOI 260528
TAFBNO
TAF
KBNO 260528Z 2606/2706 32004KT P6SM SCT250=



000
FTUS45 KBOI 260528
TAFBOI
TAF
KBOI 260528Z 2606/2706 00000KT 5SM BR SCT010
      TEMPO 2606/2608 2SM BR OVC008
     FM260800 VRB03KT 1/4SM FZFG OVC003
     FM261900 VRB03KT 6SM HZ SCT015=



000
FTUS45 KBOI 260528
TAFJER
TAF
KJER 260528Z 2606/2706 04012G22KT 6SM BR OVC015
     FM261600 04015G28KT P6SM BKN025
     FM262200 04014G26KT P6SM SCT025=



000
FTUS45 KBOI 260528
TAFBKE
TAF
KBKE 260528Z 2606/2706 13006KT 6SM BR SCT250=



000
FTUS45 KBOI 260528
TAFBKE
TAF
KBKE 260528Z 2606/2706 13006KT 6SM BR SCT250=



000
FTUS45 KBOI 260528
TAFBOI
TAF
KBOI 260528Z 2606/2706 00000KT 5SM BR SCT010
      TEMPO 2606/2608 2SM BR OVC008
     FM260800 VRB03KT 1/4SM FZFG OVC003
     FM261900 VRB03KT 6SM HZ SCT015=



000
FTUS45 KBOI 260528
TAFTWF
TAF
KTWF 260528Z 2606/2706 07012KT 6SM BR SCT010
     FM260700 07010KT 6SM BR OVC010
     FM261700 10006KT P6SM SCT015=



000
FTUS45 KBOI 260528
TAFMYL
TAF
KMYL 260528Z 2606/2706 00000KT 1/2SM FZFG VV001
     FM262100 00000KT P6SM SCT100=



000
FTUS45 KBOI 260528
TAFBNO
TAF
KBNO 260528Z 2606/2706 32004KT P6SM SCT250=



000
FTUS45 KBOI 260459 AAC
TAFMYL
TAF AMD
KMYL 260459Z 2605/2624 00000KT 1/2SM FZFG OVC001
     FM262100 00000KT P6SM SCT100=



000
FTUS45 KBOI 260415 AAB
TAFMYL
TAF AMD
KMYL 260415Z 2604/2624 VRB03KT 5SM BR OVC010
      TEMPO 2604/2606 SCT015
     FM260600 00000KT 1/2SM FZFG OVC001
     FM262100 00000KT P6SM SCT100=



000
FTUS45 KBOI 260415 AAB
TAFMYL
TAF AMD
KMYL 260415Z 2604/2624 VRB03KT 5SM BR OVC010
      TEMPO 2604/2606 SCT015
     FM260600 00000KT 1/2SM FZFG OVC001
     FM262100 00000KT P6SM SCT100=



000
FTUS45 KBOI 260414 AAB
TAFTWF
TAF AMD
KTWF 260414Z 2604/2624 07009KT 6SM BR SCT030
     FM260600 11005KT 6SM BR OVC025
     FM261700 10006KT P6SM SCT025=



000
FTUS45 KBOI 260414 AAB
TAFTWF
TAF AMD
KTWF 260414Z 2604/2624 07009KT 6SM BR SCT030
     FM260600 11005KT 6SM BR OVC025
     FM261700 10006KT P6SM SCT025=



000
FTUS45 KBOI 260413 CCA
TAFBOI
TAF COR
KBOI 260413Z 2604/2624 00000KT 6SM BR SCT010
     FM260500 00000KT 3SM BR OVC010
     FM260800 VRB03KT 1/4SM FZFG OVC003
     FM261700 VRB03KT 6SM HZ SCT015=



000
FTUS45 KBOI 260413 AAB
TAFBOI
TAF AMD
KBOI 260413Z 2604/2624 00000KT 6SM BR SCT010
     FM260500 00000KT 3SM BR OVC100
     FM260800 VRB03KT 1/4SM FZFG OVC003
     FM261700 VRB03KT 6SM HZ SCT015=



000
FTUS45 KBOI 260413 AAB
TAFBOI
TAF AMD
KBOI 260413Z 2604/2624 00000KT 6SM BR SCT010
     FM260500 00000KT 3SM BR OVC100
     FM260800 VRB03KT 1/4SM FZFG OVC003
     FM261700 VRB03KT 6SM HZ SCT015=



000
FTUS45 KBOI 260202 AAA
TAFMYL
TAF AMD
KMYL 260202Z 2602/2624 32003KT 3SM BR OVC010
      TEMPO 2602/2604 VRB03KT P6SM NSW SCT015 BKN100
     FM260600 00000KT 1/2SM FZFG OVC001
     FM262100 00000KT P6SM SCT100=



000
FTUS45 KBOI 260202 AAA
TAFMYL
TAF AMD
KMYL 260202Z 2602/2624 32003KT 3SM BR OVC010
      TEMPO 2602/2604 VRB03KT P6SM NSW SCT015 BKN100
     FM260600 00000KT 1/2SM FZFG OVC001
     FM262100 00000KT P6SM SCT100=



000
FTUS45 KBOI 260201 AAA
TAFTWF
TAF AMD
KTWF 260201Z 2602/2624 10004KT 6SM BR SCT030
     FM260500 11005KT 6SM BR OVC025
     FM261700 10006KT P6SM SCT025=



000
FTUS45 KBOI 260201 AAA
TAFJER
TAF AMD
KJER 260201Z 2602/2624 04015KT P6SM SCT020
     FM260500 04012G22KT P6SM OVC015
     FM261600 04015G28KT P6SM BKN025
     FM262200 04014G26KT P6SM SCT025=



000
FTUS45 KBOI 260201 AAA
TAFTWF
TAF AMD
KTWF 260201Z 2602/2624 10004KT 6SM BR SCT030
     FM260500 11005KT 6SM BR OVC025
     FM261700 10006KT P6SM SCT025=



000
FTUS45 KBOI 252331
TAFJER
TAF
KJER 252331Z 2600/2624 04011KT P6SM SCT020 BKN080
     FM260200 04010KT 6SM HZ OVC025
     FM260500 04012G22KT P6SM OVC015
     FM261600 04015G28KT P6SM BKN025
     FM262200 04014G26KT P6SM SCT025=



000
FTUS45 KBOI 252331
TAFBOI
TAF
KBOI 252331Z 2600/2624 27008KT 5SM HZ SCT015
     FM260500 VRB03KT 1/4SM FZFG OVC003
     FM261700 VRB03KT 6SM HZ SCT015=



000
FTUS45 KBOI 252331
TAFBNO
TAF
KBNO 252331Z 2600/2624 07004KT P6SM SKC
     FM260300 32004KT P6SM SCT250=



000
FTUS45 KBOI 252331
TAFMYL
TAF
KMYL 252331Z 2600/2624 32003KT 3SM BR OVC010
      TEMPO 2600/2602 VRB03KT P6SM NSW SCT015 BKN100
     FM260600 00000KT 1/2SM FZFG OVC001
     FM262100 00000KT P6SM SCT100=



000
FTUS45 KBOI 252331
TAFBKE
TAF
KBKE 252331Z 2600/2624 11005KT P6SM SCT150
     FM260600 13011KT P6SM SCT250=



000
FTUS45 KBOI 252331
TAFTWF
TAF
KTWF 252331Z 2600/2624 10004KT 6SM BR SCT030
     FM260200 11005KT 6SM BR OVC025
     FM261700 10006KT P6SM SCT025=



000
FTUS45 KBOI 252200 AAB
TAFMYL
TAF AMD
KMYL 252200Z 2522/2618 32003KT 3SM BR OVC010
      TEMPO 2522/2602 VRB03KT P6SM NSW SCT015 BKN100
     FM261400 00000KT 1SM BR OVC007=



000
FTUS45 KBOI 252200 AAB
TAFMYL
TAF AMD
KMYL 252200Z 2522/2618 32003KT 3SM BR OVC010
      TEMPO 2522/2602 VRB03KT P6SM NSW SCT015 BKN100
     FM261400 00000KT 1SM BR OVC007=



000
FTUS45 KBOI 252032 AAA
TAFMYL
TAF AMD
KMYL 252032Z 2521/2618 VRB03KT 1/2SM FG OVC005
     FM252200 32003KT 3SM BR OVC010
      TEMPO 2523/2603 VRB03KT P6SM NSW OVC015
     FM261400 00000KT 1SM BR OVC007=



000
FTUS45 KBOI 252032 AAA
TAFMYL
TAF AMD
KMYL 252032Z 2521/2618 VRB03KT 1/2SM FG OVC005
     FM252200 32003KT 3SM BR OVC010
      TEMPO 2523/2603 VRB03KT P6SM NSW OVC015
     FM261400 00000KT 1SM BR OVC007=



000
FTUS45 KBOI 251901 AAA
TAFJER
TAF AMD
KJER 251901Z 2519/2618 04011KT P6SM SCT020 BKN080
     FM260100 04010KT 6SM HZ OVC025
     FM260500 04012G22KT P6SM OVC015
     FM261600 04015G28KT P6SM BKN025=



000
FTUS45 KBOI 251807 CCA
TAFMYL
TAF COR
KMYL 251807Z 2518/2618 VRB03KT 1/2SM FG OVC005
     FM251930 32003KT 3SM BR OVC010
     FM252130 VRB03KT P6SM OVC015
     FM261400 00000KT 1SM BR OVC007=



000
FTUS45 KBOI 251807 CCA
TAFMYL
TAF COR
KMYL 251807Z 2518/2618 VRB03KT 1/2SM FG OVC005
     FM251930 32003KT 3SM BR OVC010
     FM252130 VRB03KT P6SM OVC015
     FM261400 00000KT 1SM BR OVC007=



000
FTUS45 KBOI 251742
TAFMYL
TAF
KMYL 251742Z 2518/2618 00000KT 1SM BR OVC005
     FM251800 VRB03KT 6SM BR OVC015
     FM261400 00000KT 1SM BR OVC011=



000
FTUS45 KBOI 251742
TAFMYL
TAF
KMYL 251742Z 2518/2618 00000KT 1SM BR OVC005
     FM251800 VRB03KT 6SM BR OVC015
     FM261400 00000KT 1SM BR OVC011=



000
FTUS45 KBOI 251740
TAFBKE
TAF
KBKE 251740Z 2518/2618 VRB03KT 5SM HZ BKN150
     FM252100 11005KT P6SM SCT150
     FM260600 13011KT P6SM SCT250=



000
FTUS45 KBOI 251740
TAFBKE
TAF
KBKE 251740Z 2518/2618 VRB03KT 5SM HZ BKN150
     FM252100 11005KT P6SM SCT150
     FM260600 13011KT P6SM SCT250=



000
FTUS45 KBOI 251738
TAFBNO
TAF
KBNO 251738Z 2518/2618 07004KT P6SM SKC
     FM260300 32004KT P6SM SCT250=



000
FTUS45 KBOI 251738
TAFBNO
TAF
KBNO 251738Z 2518/2618 07004KT P6SM SKC
     FM260300 32004KT P6SM SCT250=



000
FTUS45 KBOI 251736
TAFTWF
TAF
KTWF 251736Z 2518/2618 10004KT 6SM BR SCT030
     FM260200 11005KT 6SM BR OVC025
     FM261700 16006KT P6SM SCT025=



000
FTUS45 KBOI 251736
TAFTWF
TAF
KTWF 251736Z 2518/2618 10004KT 6SM BR SCT030
     FM260200 11005KT 6SM BR OVC025
     FM261700 16006KT P6SM SCT025=



000
FTUS45 KBOI 251731
TAFJER
TAF
KJER 251731Z 2518/2618 04011KT P6SM SCT020 BKN080
     FM252000 04012KT P6SM BKN015
     FM260100 04010KT 1SM BR OVC004
     FM260500 04012G22KT P6SM OVC015
     FM261600 04015G28KT P6SM BKN025=



000
FTUS45 KBOI 251731
TAFJER
TAF
KJER 251731Z 2518/2618 04011KT P6SM SCT020 BKN080
     FM252000 04012KT P6SM BKN015
     FM260100 04010KT 1SM BR OVC004
     FM260500 04012G22KT P6SM OVC015
     FM261600 04015G28KT P6SM BKN025=



000
FTUS45 KBOI 251723
TAFBOI
TAF
KBOI 251723Z 2518/2618 14003KT P6SM FEW011 SCT150
     FM252200 29004KT 6SM HZ SCT011
     FM260200 13004KT 6SM BR FEW013
     FM260900 13006KT P6SM SCT015
      TEMPO 2610/2614 13003KT 5SM BR OVC020
     FM261700 VRB03KT 6SM HZ SCT015=



000
FTUS45 KBOI 251723
TAFBOI
TAF
KBOI 251723Z 2518/2618 14003KT P6SM FEW011 SCT150
     FM252200 29004KT 6SM HZ SCT011
     FM260200 13004KT 6SM BR FEW013
     FM260900 13006KT P6SM SCT015
      TEMPO 2610/2614 13003KT 5SM BR OVC020
     FM261700 VRB03KT 6SM HZ SCT015=



000
FTUS45 KBOI 251247 AAA
TAFTWF
TAF AMD
KTWF 251247Z 2513/2612 19004KT 6SM BR SCT120
      TEMPO 2513/2517 1/4SM FZFG VV002
     FM251730 VRB06KT 6SM BR SCT030
     FM260200 11005KT 6SM BR OVC025=



000
FTUS45 KBOI 251247 AAA
TAFTWF
TAF AMD
KTWF 251247Z 2513/2612 19004KT 6SM BR SCT120
      TEMPO 2513/2517 1/4SM FZFG VV002
     FM251730 VRB06KT 6SM BR SCT030
     FM260200 11005KT 6SM BR OVC025=



000
FTUS45 KBOI 251121
TAFJER
TAF
KJER 251121Z 2512/2612 02007KT 6SM BR SCT120
     FM252100 04012KT 6SM BR BKN015
     FM260100 04010KT 1SM BR OVC004=



000
FTUS45 KBOI 251121
TAFBOI
TAF
KBOI 251121Z 2512/2612 14005KT 6SM BR SCT120
     FM251900 29004KT 6SM BR SCT040
     FM260300 24005KT 6SM BR BKN005=



000
FTUS45 KBOI 251121
TAFBNO
TAF
KBNO 251121Z 2512/2612 VRB05KT P6SM SCT120=



000
FTUS45 KBOI 251121
TAFTWF
TAF
KTWF 251121Z 2512/2612 19004KT 6SM BR SCT120
     FM251730 VRB06KT 6SM BR SCT030
     FM260200 11005KT 6SM BR OVC025=



000
FTUS45 KBOI 251121
TAFBKE
TAF
KBKE 251121Z 2512/2612 VRB04KT 4SM BR VCFG SCT120
     FM251600 VRB03KT 6SM HZ SCT150=



000
FTUS45 KBOI 251121
TAFMYL
TAF
KMYL 251121Z 2512/2612 00000KT 6SM BR OVC008
     FM251800 VRB03KT 6SM BR OVC015=



000
FTUS45 KBOI 251121
TAFBNO
TAF
KBNO 251121Z 2512/2612 VRB05KT P6SM SCT120=



000
FTUS45 KBOI 251121
TAFMYL
TAF
KMYL 251121Z 2512/2612 00000KT 6SM BR OVC008
     FM251800 VRB03KT 6SM BR OVC015=



000
FTUS45 KBOI 251121
TAFTWF
TAF
KTWF 251121Z 2512/2612 19004KT 6SM BR SCT120
     FM251730 VRB06KT 6SM BR SCT030
     FM260200 11005KT 6SM BR OVC025=



000
FTUS45 KBOI 251121
TAFBOI
TAF
KBOI 251121Z 2512/2612 14005KT 6SM BR SCT120
     FM251900 29004KT 6SM BR SCT040
     FM260300 24005KT 6SM BR BKN005=



000
FTUS45 KBOI 251121
TAFJER
TAF
KJER 251121Z 2512/2612 02007KT 6SM BR SCT120
     FM252100 04012KT 6SM BR BKN015
     FM260100 04010KT 1SM BR OVC004=



000
FTUS45 KBOI 251121
TAFBKE
TAF
KBKE 251121Z 2512/2612 VRB04KT 4SM BR VCFG SCT120
     FM251600 VRB03KT 6SM HZ SCT150=



000
FTUS45 KBOI 250903 AAA
TAFTWF
TAF AMD
KTWF 250903Z 2509/2606 19004KT 6SM BR SCT010
     FM251730 22006KT 6SM BR SCT030
     FM260200 11005KT 6SM BR OVC025=



000
FTUS45 KBOI 250903 AAA
TAFTWF
TAF AMD
KTWF 250903Z 2509/2606 19004KT 6SM BR SCT010
     FM251730 22006KT 6SM BR SCT030
     FM260200 11005KT 6SM BR OVC025=



000
FTUS45 KBOI 250840 AAA
TAFJER
TAF AMD
KJER 250840Z 2509/2606 02007KT 6SM BR SCT010
     FM252100 04012KT 6SM BR BKN015
     FM260100 04010KT 1SM BR OVC004=



000
FTUS45 KBOI 250840 AAA
TAFJER
TAF AMD
KJER 250840Z 2509/2606 02007KT 6SM BR SCT010
     FM252100 04012KT 6SM BR BKN015
     FM260100 04010KT 1SM BR OVC004=



000
FTUS45 KBOI 250840 AAA
TAFBOI
TAF AMD
KBOI 250840Z 2509/2606 VRB03KT 6SM BR SCT020
     FM251900 29004KT 6SM BR SCT020 OVC035=



000
FTUS45 KBOI 250840 AAA
TAFBOI
TAF AMD
KBOI 250840Z 2509/2606 VRB03KT 6SM BR SCT020
     FM251900 29004KT 6SM BR SCT020 OVC035=



000
FTUS45 KBOI 250531
TAFBKE
TAF
KBKE 250531Z 2506/2606 VRB04KT 6SM BR VCFG SCT120
     FM251500 VRB02KT 6SM HZ FEW008 BKN150=



000
FTUS45 KBOI 250531
TAFBOI
TAF
KBOI 250531Z 2506/2606 VRB03KT 6SM BR SCT020
     FM250900 00000KT 1/4SM FZFG OVC002
     FM251900 29004KT 6SM BR SCT020 OVC035=



000
FTUS45 KBOI 250531
TAFBNO
TAF
KBNO 250531Z 2506/2606 VRB05KT P6SM SCT015
     FM251500 32004KT P6SM SCT200=



000
FTUS45 KBOI 250531
TAFJER
TAF
KJER 250531Z 2506/2606 02007KT 6SM BR SCT010
     FM250700 04009KT 1SM BR OVC002
     FM252100 04012KT 6SM BR BKN015
     FM260100 04010KT 1SM BR OVC004=



000
FTUS45 KBOI 250531
TAFMYL
TAF
KMYL 250531Z 2506/2606 VRB03KT P6SM OVC015
     FM251000 00000KT 2SM BR OVC007
     FM251400 00000KT 1SM BR OVC004
     FM251800 VRB03KT 6SM BR OVC015=



000
FTUS45 KBOI 250531
TAFTWF
TAF
KTWF 250531Z 2506/2606 19004KT 6SM BR SCT010
     FM250900 17005KT 1/4SM FZFG OVC001
     FM251730 22006KT 6SM BR SCT030
     FM260200 11005KT 6SM BR OVC025=



000
FTUS45 KBOI 250531
TAFBOI
TAF
KBOI 250531Z 2506/2606 VRB03KT 6SM BR SCT020
     FM250900 00000KT 1/4SM FZFG OVC002
     FM251900 29004KT 6SM BR SCT020 OVC035=



000
FTUS45 KBOI 250531
TAFBNO
TAF
KBNO 250531Z 2506/2606 VRB05KT P6SM SCT015
     FM251500 32004KT P6SM SCT200=



000
FTUS45 KBOI 250531
TAFJER
TAF
KJER 250531Z 2506/2606 02007KT 6SM BR SCT010
     FM250700 04009KT 1SM BR OVC002
     FM252100 04012KT 6SM BR BKN015
     FM260100 04010KT 1SM BR OVC004=



000
FTUS45 KBOI 250531
TAFBKE
TAF
KBKE 250531Z 2506/2606 VRB04KT 6SM BR VCFG SCT120
     FM251500 VRB02KT 6SM HZ FEW008 BKN150=



000
FTUS45 KBOI 250531
TAFMYL
TAF
KMYL 250531Z 2506/2606 VRB03KT P6SM OVC015
     FM251000 00000KT 2SM BR OVC007
     FM251400 00000KT 1SM BR OVC004
     FM251800 VRB03KT 6SM BR OVC015=



000
FTUS45 KBOI 250531
TAFTWF
TAF
KTWF 250531Z 2506/2606 19004KT 6SM BR SCT010
     FM250900 17005KT 1/4SM FZFG OVC001
     FM251730 22006KT 6SM BR SCT030
     FM260200 11005KT 6SM BR OVC025=



000
FTUS45 KBOI 250255 AAA
TAFJER
TAF AMD
KJER 250255Z 2503/2524 02007KT P6SM SCT120
     FM250530 05007KT 2SM BR OVC005
     FM251400 04012KT P6SM OVC015=



000
FTUS45 KBOI 250154 AAA
TAFMYL
TAF AMD
KMYL 250154Z 2502/2524 VRB03KT P6SM OVC015
     FM251000 00000KT 2SM BR OVC007
     FM251400 00000KT 1/2SM FZFG OVC002
     FM251800 VRB03KT 6SM BR OVC015=



000
FTUS45 KBOI 250154 AAA
TAFMYL
TAF AMD
KMYL 250154Z 2502/2524 VRB03KT P6SM OVC015
     FM251000 00000KT 2SM BR OVC007
     FM251400 00000KT 1/2SM FZFG OVC002
     FM251800 VRB03KT 6SM BR OVC015=



000
FTUS45 KBOI 250154 AAA
TAFMYL
TAF AMD
KMYL 250154Z 2502/2524 VRB03KT P6SM OVC015
     FM251000 00000KT 2SM BR OVC007
     FM251400 00000KT 1/2SM FZFG OVC002
     FM251800 VRB03KT 6SM BR OVC015=



000
FTUS45 KBOI 250154 AAA
TAFMYL
TAF AMD
KMYL 250154Z 2502/2524 VRB03KT P6SM OVC015
     FM251000 00000KT 2SM BR OVC007
     FM251400 00000KT 1/2SM FZFG OVC002
     FM251800 VRB03KT 6SM BR OVC015=



000
FTUS45 KBOI 242340
TAFBNO
TAF
KBNO 242340Z 2500/2524 VRB03KT P6SM BKN250
     FM251500 32004KT P6SM BKN200=



000
FTUS45 KBOI 242340
TAFTWF
TAF
KTWF 242340Z 2500/2524 22008KT P6SM BKN060
     FM250600 19008KT 6SM BR SCT010
     FM250900 17008KT 1/4SM FZFG OVC001
     FM251730 22006KT 6SM BR SCT030=



000
FTUS45 KBOI 242340
TAFBKE
TAF
KBKE 242340Z 2500/2524 VRB04KT P6SM SCT120
      TEMPO 2500/2502 02007KT P6SM BKN025 OVC060
     FM251500 VRB02KT 6SM HZ FEW008 BKN150=



000
FTUS45 KBOI 242340
TAFMYL
TAF
KMYL 242340Z 2500/2524 VRB03KT P6SM OVC015
      TEMPO 2500/2503 SCT015 OVC040
     FM251000 00000KT 2SM BR OVC007
     FM251400 00000KT 1/2SM FZFG OVC002
     FM251800 VRB03KT 6SM BR OVC015=



000
FTUS45 KBOI 242340
TAFBOI
TAF
KBOI 242340Z 2500/2524 32004KT P6SM OVC040
     FM250300 13004KT 6SM HZ SCT015 BKN050
     FM251100 13006KT 6SM BR OVC035
     FM251900 29004KT 6SM BR SCT020 OVC035=



000
FTUS45 KBOI 242340
TAFJER
TAF
KJER 242340Z 2500/2524 02007KT P6SM SCT060 BKN130
      TEMPO 2500/2504 33005KT 6SM HZ OVC030
     FM250430 05007KT 2SM BR OVC005
     FM251400 04012KT P6SM OVC015=



000
FTUS45 KBOI 242340
TAFBNO
TAF
KBNO 242340Z 2500/2524 VRB03KT P6SM BKN250
     FM251500 32004KT P6SM BKN200=



000
FTUS45 KBOI 242340
TAFBOI
TAF
KBOI 242340Z 2500/2524 32004KT P6SM OVC040
     FM250300 13004KT 6SM HZ SCT015 BKN050
     FM251100 13006KT 6SM BR OVC035
     FM251900 29004KT 6SM BR SCT020 OVC035=



000
FTUS45 KBOI 242340
TAFMYL
TAF
KMYL 242340Z 2500/2524 VRB03KT P6SM OVC015
      TEMPO 2500/2503 SCT015 OVC040
     FM251000 00000KT 2SM BR OVC007
     FM251400 00000KT 1/2SM FZFG OVC002
     FM251800 VRB03KT 6SM BR OVC015=



000
FTUS45 KBOI 242340
TAFTWF
TAF
KTWF 242340Z 2500/2524 22008KT P6SM BKN060
     FM250600 19008KT 6SM BR SCT010
     FM250900 17008KT 1/4SM FZFG OVC001
     FM251730 22006KT 6SM BR SCT030=



000
FTUS45 KBOI 242340
TAFBKE
TAF
KBKE 242340Z 2500/2524 VRB04KT P6SM SCT120
      TEMPO 2500/2502 02007KT P6SM BKN025 OVC060
     FM251500 VRB02KT 6SM HZ FEW008 BKN150=



000
FTUS45 KBOI 242340
TAFJER
TAF
KJER 242340Z 2500/2524 02007KT P6SM SCT060 BKN130
      TEMPO 2500/2504 33005KT 6SM HZ OVC030
     FM250430 05007KT 2SM BR OVC005
     FM251400 04012KT P6SM OVC015=



000
FTUS45 KBOI 242221 AAA
TAFMYL
TAF AMD
KMYL 242221Z 2422/2518 VRB03KT P6SM SCT015 OVC030
      TEMPO 2422/2502 00000KT 6SM HZ OVC015
     FM250200 VRB03KT P6SM OVC040
     FM251100 00000KT 5SM BR OVC015=



000
FTUS45 KBOI 242220 AAA
TAFBKE
TAF AMD
KBKE 242220Z 2422/2518 VRB04KT P6SM SCT060 BKN120
      TEMPO 2422/2502 02007KT P6SM BKN025 OVC060
     FM251500 VRB02KT 6SM HZ FEW008 BKN150=



000
FTUS45 KBOI 242220 AAA
TAFBKE
TAF AMD
KBKE 242220Z 2422/2518 VRB04KT P6SM SCT060 BKN120
      TEMPO 2422/2502 02007KT P6SM BKN025 OVC060
     FM251500 VRB02KT 6SM HZ FEW008 BKN150=



000
FTUS45 KBOI 242218 AAA
TAFJER
TAF AMD
KJER 242218Z 2422/2518 02007KT P6SM SCT040 BKN130
      TEMPO 2500/2504 33005KT 6SM HZ OVC030
     FM250400 05007KT 3SM BR OVC011
     FM251400 04012KT P6SM OVC015=



000
FTUS45 KBOI 242218 AAA
TAFJER
TAF AMD
KJER 242218Z 2422/2518 02007KT P6SM SCT040 BKN130
      TEMPO 2500/2504 33005KT 6SM HZ OVC030
     FM250400 05007KT 3SM BR OVC011
     FM251400 04012KT P6SM OVC015=



000
FTUS45 KBOI 241736
TAFMYL
TAF
KMYL 241736Z 2418/2518 VRB03KT 5SM -FZRA BR OVC015
     FM242200 VRB03KT P6SM SCT015 OVC030
     FM250200 VRB03KT P6SM OVC040
     FM251100 00000KT 5SM BR OVC015=



000
FTUS45 KBOI 241736
TAFMYL
TAF
KMYL 241736Z 2418/2518 VRB03KT 5SM -FZRA BR OVC015
     FM242200 VRB03KT P6SM SCT015 OVC030
     FM250200 VRB03KT P6SM OVC040
     FM251100 00000KT 5SM BR OVC015=



000
FTUS45 KBOI 241733
TAFTWF
TAF
KTWF 241733Z 2418/2518 VRB04KT 2SM BR FEW002 SCT011 BKN030
     FM241900 21006KT 6SM HZ OVC035
     FM242100 22008KT P6SM BKN200
      TEMPO 2514/2518 VRB03KT 6SM BR OVC040=



000
FTUS45 KBOI 241733
TAFTWF
TAF
KTWF 241733Z 2418/2518 VRB04KT 2SM BR FEW002 SCT011 BKN030
     FM241900 21006KT 6SM HZ OVC035
     FM242100 22008KT P6SM BKN200
      TEMPO 2514/2518 VRB03KT 6SM BR OVC040=



000
FTUS45 KBOI 241729
TAFBKE
TAF
KBKE 241729Z 2418/2518 VRB06KT P6SM VCSH SCT020 BKN035 OVC060
     FM242000 VRB04KT P6SM SCT060 BKN120
     FM251500 VRB02KT 6SM HZ FEW008 BKN150=



000
FTUS45 KBOI 241729
TAFBKE
TAF
KBKE 241729Z 2418/2518 VRB06KT P6SM VCSH SCT020 BKN035 OVC060
     FM242000 VRB04KT P6SM SCT060 BKN120
     FM251500 VRB02KT 6SM HZ FEW008 BKN150=



000
FTUS45 KBOI 241725
TAFJER
TAF
KJER 241725Z 2418/2518 04009KT 5SM HZ OVC009
      TEMPO 2421/2501 29006KT P6SM NSW BKN011
     FM250600 05007KT 3SM BR OVC009
     FM251400 04012KT P6SM OVC015=



000
FTUS45 KBOI 241725
TAFJER
TAF
KJER 241725Z 2418/2518 04009KT 5SM HZ OVC009
      TEMPO 2421/2501 29006KT P6SM NSW BKN011
     FM250600 05007KT 3SM BR OVC009
     FM251400 04012KT P6SM OVC015=



000
FTUS45 KBOI 241721
TAFBOI
TAF
KBOI 241721Z 2418/2518 VRB06KT P6SM OVC060
     FM242000 32004KT P6SM SCT035 BKN060
     FM250300 13004KT 6SM HZ OVC050
     FM251100 13006KT 6SM BR OVC035=



000
FTUS45 KBOI 241721
TAFBOI
TAF
KBOI 241721Z 2418/2518 VRB06KT P6SM OVC060
     FM242000 32004KT P6SM SCT035 BKN060
     FM250300 13004KT 6SM HZ OVC050
     FM251100 13006KT 6SM BR OVC035=



000
FTUS45 KBOI 241720
TAFBNO
TAF
KBNO 241720Z 2418/2518 VRB03KT P6SM BKN120
      TEMPO 2423/2503 VRB03KT P6SM SCT250
     FM251500 32004KT P6SM BKN200=



000
FTUS45 KBOI 241602 AAB
TAFTWF
TAF AMD
KTWF 241602Z 2416/2512 VRB04KT 5SM BR FEW002 SCT011 BKN030
      TEMPO 2416/2418 1SM BR BKN002 OVC060
     FM241900 21006KT 6SM BR OVC035
     FM242100 22008KT P6SM BKN200=



000
FTUS45 KBOI 241602 AAB
TAFTWF
TAF AMD
KTWF 241602Z 2416/2512 VRB04KT 5SM BR FEW002 SCT011 BKN030
      TEMPO 2416/2418 1SM BR BKN002 OVC060
     FM241900 21006KT 6SM BR OVC035
     FM242100 22008KT P6SM BKN200=



000
FTUS45 KBOI 241519 AAA
TAFTWF
TAF AMD
KTWF 241519Z 2415/2512 VRB04KT 5SM BR FEW002 SCT011 BKN030
      TEMPO 2415/2418 3SM BR BKN011 OVC060
     FM241900 21006KT 6SM BR OVC035
     FM242100 22008KT P6SM BKN200=



000
FTUS45 KBOI 241519 AAA
TAFTWF
TAF AMD
KTWF 241519Z 2415/2512 VRB04KT 5SM BR FEW002 SCT011 BKN030
      TEMPO 2415/2418 3SM BR BKN011 OVC060
     FM241900 21006KT 6SM BR OVC035
     FM242100 22008KT P6SM BKN200=



000
FTUS45 KBOI 241452 AAB
TAFJER
TAF AMD
KJER 241452Z 2415/2512 06008KT 6SM BR OVC007
     FM241700 08011KT P6SM OVC010
      TEMPO 2421/2501 29006KT P6SM BKN011
     FM250600 05007KT 3SM BR OVC009=



000
FTUS45 KBOI 241424 AAA
TAFJER
TAF AMD
KJER 241424Z 2414/2512 04010KT 1SM BR OVC007
     FM241700 04012KT 4SM BR OVC007
     FM242200 34008KT P6SM OVC010=



000
FTUS45 KBOI 241424 AAA
TAFJER
TAF AMD
KJER 241424Z 2414/2512 04010KT 1SM BR OVC007
     FM241700 04012KT 4SM BR OVC007
     FM242200 34008KT P6SM OVC010=



000
FTUS45 KBOI 241423 AAA
TAFBOI
TAF AMD
KBOI 241423Z 2414/2512 13008KT P6SM OVC060
      TEMPO 2414/2416 19006KT 6SM BR BKN004 OVC060=



000
FTUS45 KBOI 241423 AAA
TAFBOI
TAF AMD
KBOI 241423Z 2414/2512 13008KT P6SM OVC060
      TEMPO 2414/2416 19006KT 6SM BR BKN004 OVC060=



000
FTUS45 KBOI 241120
TAFBKE
TAF
KBKE 241120Z 2412/2512 VRB06KT P6SM VCSH OVC060
     FM242000 VRB04KT P6SM SCT060 BKN120=



000
FTUS45 KBOI 241120
TAFJER
TAF
KJER 241120Z 2412/2512 04010KT 1/4SM FZFG OVC002
     FM241700 04012KT 4SM BR OVC007
     FM242200 34008KT P6SM OVC010=



000
FTUS45 KBOI 241120
TAFBKE
TAF
KBKE 241120Z 2412/2512 VRB06KT P6SM VCSH OVC060
     FM242000 VRB04KT P6SM SCT060 BKN120=



000
FTUS45 KBOI 241120
TAFTWF
TAF
KTWF 241120Z 2412/2512 VRB04KT 1/4SM FZFG VV002
      TEMPO 2412/2416 6SM BR SCT002
     FM241930 21006KT 2SM BR OVC004
     FM242100 22008KT P6SM BKN015=



000
FTUS45 KBOI 241120
TAFTWF
TAF
KTWF 241120Z 2412/2512 VRB04KT 1/4SM FZFG VV002
      TEMPO 2412/2416 6SM BR SCT002
     FM241930 21006KT 2SM BR OVC004
     FM242100 22008KT P6SM BKN015=



000
FTUS45 KBOI 241120
TAFJER
TAF
KJER 241120Z 2412/2512 04010KT 1/4SM FZFG OVC002
     FM241700 04012KT 4SM BR OVC007
     FM242200 34008KT P6SM OVC010=



000
FTUS45 KBOI 241120
TAFBNO
TAF
KBNO 241120Z 2412/2512 VRB03KT P6SM SCT070 OVC120
     FM242000 VRB03KT P6SM BKN120=



000
FTUS45 KBOI 241120
TAFBOI
TAF
KBOI 241120Z 2412/2512 13008KT P6SM OVC060=



000
FTUS45 KBOI 241120
TAFMYL
TAF
KMYL 241120Z 2412/2512 VRB03KT P6SM VCSH OVC025
     FM241500 VRB03KT 5SM -SHSN BR OVC020
     FM242200 VRB03KT P6SM SCT025 OVC050=



000
FTUS45 KBOI 241120
TAFBNO
TAF
KBNO 241120Z 2412/2512 VRB03KT P6SM SCT070 OVC120
     FM242000 VRB03KT P6SM BKN120=



000
FTUS45 KBOI 241120
TAFBOI
TAF
KBOI 241120Z 2412/2512 13008KT P6SM OVC060=



000
FTUS45 KBOI 241120
TAFMYL
TAF
KMYL 241120Z 2412/2512 VRB03KT P6SM VCSH OVC025
     FM241500 VRB03KT 5SM -SHSN BR OVC020
     FM242200 VRB03KT P6SM SCT025 OVC050=



000
FTUS45 KBOI 240822 AAB
TAFBOI
TAF AMD
KBOI 240822Z 2408/2506 13011KT P6SM OVC060
     FM241000 14010KT P6SM OVC015
     FM241230 13007KT P6SM OVC010
     FM242100 VRB03KT P6SM OVC025=



000
FTUS45 KBOI 240822 AAB
TAFBOI
TAF AMD
KBOI 240822Z 2408/2506 13011KT P6SM OVC060
     FM241000 14010KT P6SM OVC015
     FM241230 13007KT P6SM OVC010
     FM242100 VRB03KT P6SM OVC025=



000
FTUS45 KBOI 240622 AAA
TAFJER
TAF AMD
KJER 240622Z 2406/2506 05013KT 1SM BR OVC003
     FM240800 04010KT 1/4SM FZFG OVC002
     FM241700 04012KT 4SM BR OVC007
     FM242200 34008KT P6SM OVC015=



000
FTUS45 KBOI 240622 AAA
TAFJER
TAF AMD
KJER 240622Z 2406/2506 05013KT 1SM BR OVC003
     FM240800 04010KT 1/4SM FZFG OVC002
     FM241700 04012KT 4SM BR OVC007
     FM242200 34008KT P6SM OVC015=



000
FTUS45 KBOI 240538
TAFJER
TAF
KJER 240538Z 2406/2506 05010KT 1SM BR OVC004
     FM242200 34008KT P6SM OVC015=



000
FTUS45 KBOI 240538
TAFBNO
TAF
KBNO 240538Z 2406/2506 VRB03KT P6SM SCT070 OVC120
     FM242000 VRB03KT P6SM BKN120=



000
FTUS45 KBOI 240538
TAFMYL
TAF
KMYL 240538Z 2406/2506 VRB03KT P6SM VCSH OVC050
      TEMPO 2406/2410 5SM -SHSN BR OVC030
     FM241500 VRB03KT 5SM -SHSN BR OVC020
     FM242200 VRB03KT P6SM SCT025 OVC050=



000
FTUS45 KBOI 240538
TAFBKE
TAF
KBKE 240538Z 2406/2506 VRB06KT P6SM VCSH OVC050
     FM241000 VRB04KT P6SM SCT030 OVC060
     FM242200 VRB04KT P6SM SCT060 BKN120=



000
FTUS45 KBOI 240538
TAFTWF
TAF
KTWF 240538Z 2406/2506 VRB04KT 1/4SM FZFG VV002
     FM241930 21006KT 2SM BR OVC004
     FM242100 22008KT P6SM BKN015=



000
FTUS45 KBOI 240538
TAFBOI
TAF
KBOI 240538Z 2406/2506 13011KT P6SM SCT020 OVC150
     FM240700 14010KT P6SM OVC015
     FM241230 13007KT P6SM OVC010
     FM242100 VRB03KT P6SM OVC025=



000
FTUS45 KBOI 240538
TAFMYL
TAF
KMYL 240538Z 2406/2506 VRB03KT P6SM VCSH OVC050
      TEMPO 2406/2410 5SM -SHSN BR OVC030
     FM241500 VRB03KT 5SM -SHSN BR OVC020
     FM242200 VRB03KT P6SM SCT025 OVC050=



000
FTUS45 KBOI 240538
TAFBOI
TAF
KBOI 240538Z 2406/2506 13011KT P6SM SCT020 OVC150
     FM240700 14010KT P6SM OVC015
     FM241230 13007KT P6SM OVC010
     FM242100 VRB03KT P6SM OVC025=



000
FTUS45 KBOI 240538
TAFJER
TAF
KJER 240538Z 2406/2506 05010KT 1SM BR OVC004
     FM242200 34008KT P6SM OVC015=



000
FTUS45 KBOI 240538
TAFTWF
TAF
KTWF 240538Z 2406/2506 VRB04KT 1/4SM FZFG VV002
     FM241930 21006KT 2SM BR OVC004
     FM242100 22008KT P6SM BKN015=



000
FTUS45 KBOI 240538
TAFBNO
TAF
KBNO 240538Z 2406/2506 VRB03KT P6SM SCT070 OVC120
     FM242000 VRB03KT P6SM BKN120=



000
FTUS45 KBOI 240538
TAFBKE
TAF
KBKE 240538Z 2406/2506 VRB06KT P6SM VCSH OVC050
     FM241000 VRB04KT P6SM SCT030 OVC060
     FM242200 VRB04KT P6SM SCT060 BKN120=



000
FTUS45 KBOI 240435 AAB
TAFBOI
TAF AMD
KBOI 240435Z 2405/2424 14012KT P6SM VCFG SCT030
     FM240600 13008KT P6SM OVC015
     FM241230 VRB03KT 1/4SM FZFG VV002
     FM241700 VRB03KT P6SM SCT150=



000
FTUS45 KBOI 240435 AAB
TAFBOI
TAF AMD
KBOI 240435Z 2405/2424 14012KT P6SM VCFG SCT030
     FM240600 13008KT P6SM OVC015
     FM241230 VRB03KT 1/4SM FZFG VV002
     FM241700 VRB03KT P6SM SCT150=



000
FTUS45 KBOI 240401 AAA
TAFBNO
TAF AMD
KBNO 240401Z 2404/2424 VRB03KT P6SM SCT070 OVC120
     FM242000 VRB03KT P6SM BKN025 BKN120=



000
FTUS45 KBOI 240401 AAA
TAFBNO
TAF AMD
KBNO 240401Z 2404/2424 VRB03KT P6SM SCT070 OVC120
     FM242000 VRB03KT P6SM BKN025 BKN120=



000
FTUS45 KBOI 240324 AAA
TAFJER
TAF AMD
KJER 240324Z 2403/2424 04009KT 6SM BR OVC006
     FM240600 05010KT 2SM BR OVC004
     FM242200 04008KT P6SM OVC010=



000
FTUS45 KBOI 240320 AAC
TAFBOI
TAF AMD
KBOI 240320Z 2403/2424 VRB05KT P6SM VCFG SCT030
     FM240600 13003KT P6SM OVC015
     FM241230 00000KT 1/4SM FZFG VV002
     FM241700 VRB03KT P6SM SCT150=



000
FTUS45 KBOI 240320 AAC
TAFBOI
TAF AMD
KBOI 240320Z 2403/2424 VRB05KT P6SM VCFG SCT030
     FM240600 13003KT P6SM OVC015
     FM241230 00000KT 1/4SM FZFG VV002
     FM241700 VRB03KT P6SM SCT150=



000
FTUS45 KBOI 240211 AAB
TAFBOI
TAF AMD
KBOI 240211Z 2402/2424 VRB05KT P6SM VCFG OVC030
     FM240600 13003KT P6SM OVC004
     FM241230 00000KT 1/4SM FZFG VV002
     FM241700 VRB03KT P6SM SCT150=



000
FTUS45 KBOI 240211 AAB
TAFBOI
TAF AMD
KBOI 240211Z 2402/2424 VRB05KT P6SM VCFG OVC030
     FM240600 13003KT P6SM OVC004
     FM241230 00000KT 1/4SM FZFG VV002
     FM241700 VRB03KT P6SM SCT150=



000
FTUS45 KBOI 240144 AAA
TAFTWF
TAF AMD
KTWF 240144Z 2402/2424 VRB05KT 1SM BR OVC009
     FM241200 VRB03KT 1/4SM FZFG VV002
     FM241930 21006KT 2SM BR OVC008=



000
FTUS45 KBOI 240144 AAA
TAFTWF
TAF AMD
KTWF 240144Z 2402/2424 VRB05KT 1SM BR OVC009
     FM241200 VRB03KT 1/4SM FZFG VV002
     FM241930 21006KT 2SM BR OVC008=



000
FTUS45 KBOI 232327
TAFBKE
TAF
KBKE 232327Z 2400/2424 VRB05KT P6SM BKN070
     FM240200 12005KT P6SM VCSH OVC040
     FM241000 VRB03KT P6SM SCT050 BKN120=



000
FTUS45 KBOI 232327
TAFBOI
TAF
KBOI 232327Z 2400/2424 VRB05KT P6SM VCFG SCT025
     FM240600 13003KT P6SM OVC004
     FM241230 00000KT 1/4SM FZFG VV002
     FM241700 VRB03KT P6SM SCT150=



000
FTUS45 KBOI 232327
TAFTWF
TAF
KTWF 232327Z 2400/2424 VRB04KT 1SM BR OVC005
     FM241200 VRB03KT 1/4SM FZFG VV002
     FM241930 21006KT 2SM BR OVC008=



000
FTUS45 KBOI 232327
TAFBNO
TAF
KBNO 232327Z 2400/2424 00000KT P6SM SCT015
     FM240400 VRB03KT P6SM OVC015
     FM242000 VRB03KT P6SM BKN025 BKN120=



000
FTUS45 KBOI 232327
TAFMYL
TAF
KMYL 232327Z 2400/2424 17005KT P6SM SCT150
     FM240600 VRB03KT 5SM -SN BR OVC030
     FM241500 00000KT 6SM BR OVC025
     FM241800 VRB03KT P6SM SCT025 OVC150=



000
FTUS45 KBOI 232327
TAFJER
TAF
KJER 232327Z 2400/2424 VRB05KT P6SM OVC010
     FM240400 05010KT P6SM OVC004
     FM242200 04008KT P6SM OVC010=



000
FTUS45 KBOI 232327
TAFBOI
TAF
KBOI 232327Z 2400/2424 VRB05KT P6SM VCFG SCT025
     FM240600 13003KT P6SM OVC004
     FM241230 00000KT 1/4SM FZFG VV002
     FM241700 VRB03KT P6SM SCT150=



000
FTUS45 KBOI 232327
TAFBKE
TAF
KBKE 232327Z 2400/2424 VRB05KT P6SM BKN070
     FM240200 12005KT P6SM VCSH OVC040
     FM241000 VRB03KT P6SM SCT050 BKN120=



000
FTUS45 KBOI 232327
TAFBNO
TAF
KBNO 232327Z 2400/2424 00000KT P6SM SCT015
     FM240400 VRB03KT P6SM OVC015
     FM242000 VRB03KT P6SM BKN025 BKN120=



000
FTUS45 KBOI 232327
TAFTWF
TAF
KTWF 232327Z 2400/2424 VRB04KT 1SM BR OVC005
     FM241200 VRB03KT 1/4SM FZFG VV002
     FM241930 21006KT 2SM BR OVC008=



000
FTUS45 KBOI 232327
TAFJER
TAF
KJER 232327Z 2400/2424 VRB05KT P6SM OVC010
     FM240400 05010KT P6SM OVC004
     FM242200 04008KT P6SM OVC010=



000
FTUS45 KBOI 232327
TAFMYL
TAF
KMYL 232327Z 2400/2424 17005KT P6SM SCT150
     FM240600 VRB03KT 5SM -SN BR OVC030
     FM241500 00000KT 6SM BR OVC025
     FM241800 VRB03KT P6SM SCT025 OVC150=



    US Dept of Commerce
    National Oceanic and Atmospheric Administration
    National Weather Service
    1325 East West Highway
    Silver Spring, MD 20910
    Page Author: NWS Internet Services Team
Disclaimer
Information Quality
Credits
Glossary
Privacy Policy
Freedom of Information Act (FOIA)
About Us
Career Opportunities